Time;durP1;ratioP1;P1;durP2;ratioP2;P2;SDS_P1;SDS_P2;PMS_P1;PMS_P2;Temp;Humidity;BMP_temperature;BMP_pressure;BME280_temperature;BME280_humidity;BME280_pressure;Samples;Min_cycle;Max_cycle;Signal;HPM_P1;HPM_P2
2021/07/09 00:02:21;;;;;;;15.25;12.57;;;640.70;2432.00;;;;;;5057371;28;20112;-85
2021/07/09 00:04:47;;;;;;;14.88;12.75;;;640.70;2432.00;;;;;;5056002;28;20111;-84
2021/07/09 00:07:13;;;;;;;13.35;11.88;;;640.50;2432.00;;;;;;5056050;28;20025;-86
2021/07/09 00:09:39;;;;;;;14.55;12.50;;;640.30;2432.00;;;;;;5056701;28;20480;-86
2021/07/09 00:12:05;;;;;;;19.27;14.13;;;640.30;2432.00;;;;;;5056024;28;20020;-86
2021/07/09 00:14:33;;;;;;;15.93;12.25;;;640.40;2432.00;;;;;;5055473;28;20089;-85
2021/07/09 00:17:00;;;;;;;14.55;11.65;;;640.40;2432.00;;;;;;5059438;28;20078;-84
2021/07/09 00:19:26;;;;;;;14.00;12.15;;;640.50;2432.00;;;;;;5067386;28;20027;-84
2021/07/09 00:21:52;;;;;;;15.32;11.93;;;640.40;2432.00;;;;;;5066893;28;20052;-84
2021/07/09 00:24:19;;;;;;;17.45;12.45;;;640.40;2432.00;;;;;;5061442;28;20021;-84
2021/07/09 00:26:45;;;;;;;14.43;11.52;;;640.50;2432.00;;;;;;5056369;28;20021;-87
2021/07/09 00:29:11;;;;;;;18.90;12.90;;;640.50;2432.00;;;;;;5055565;28;20021;-84
2021/07/09 00:31:37;;;;;;;12.45;10.98;;;640.20;2432.00;;;;;;5055000;28;20457;-85
2021/07/09 00:34:06;;;;;;;13.73;11.20;;;640.20;2432.00;;;;;;5055070;28;20465;-84
2021/07/09 00:36:33;;;;;;;17.55;12.02;;;640.30;2432.00;;;;;;5055515;28;20017;-85
2021/07/09 00:39:00;;;;;;;13.77;11.85;;;640.40;2432.00;;;;;;5055521;28;20107;-85
2021/07/09 00:41:27;;;;;;;14.15;12.63;;;640.40;2432.00;;;;;;5054969;28;20045;-84
2021/07/09 00:43:53;;;;;;;16.27;12.27;;;640.40;2432.00;;;;;;5055400;28;20025;-84
2021/07/09 00:46:38;;;;;;;13.35;11.48;;;640.20;2432.00;;;;;;5055453;28;20119;-86
2021/07/09 00:49:05;;;;;;;13.65;12.25;;;640.20;2432.00;;;;;;5055266;28;20013;-85
2021/07/09 00:51:31;;;;;;;14.70;11.52;;;640.10;2432.00;;;;;;5055193;28;20071;-86
2021/07/09 00:53:58;;;;;;;13.48;11.70;;;640.10;2432.00;;;;;;5055127;28;20445;-87
2021/07/09 00:56:25;;;;;;;14.15;11.55;;;640.00;2432.00;;;;;;5055115;28;20368;-84
2021/07/09 00:58:52;;;;;;;13.60;12.13;;;640.10;2432.00;;;;;;5055256;28;20048;-87
2021/07/09 01:01:18;;;;;;;13.90;12.40;;;640.10;2432.00;;;;;;5055295;28;20160;-85
2021/07/09 01:03:44;;;;;;;15.35;13.73;;;615.20;2432.00;;;;;;5055534;28;20086;-85
2021/07/09 01:06:12;;;;;;;14.73;12.07;;;615.20;2432.00;;;;;;5055309;28;20024;-84
2021/07/09 01:08:38;;;;;;;14.55;12.63;;;615.30;2432.00;;;;;;5054913;28;20025;-86
2021/07/09 01:11:04;;;;;;;12.23;10.93;;;615.20;2432.00;;;;;;5054965;28;20333;-84
2021/07/09 01:13:30;;;;;;;13.32;11.02;;;615.20;2432.00;;;;;;5054713;28;20507;-84
2021/07/09 01:15:56;;;;;;;16.45;12.25;;;615.10;2432.00;;;;;;5055039;28;20057;-84
2021/07/09 01:18:22;;;;;;;17.92;11.77;;;614.90;2432.00;;;;;;5054903;28;20515;-84
2021/07/09 01:20:48;;;;;;;15.40;11.68;;;614.90;2432.00;;;;;;5054752;28;20017;-87
2021/07/09 01:23:18;;;;;;;16.85;12.05;;;614.90;2432.00;;;;;;5054339;28;20108;-85
2021/07/09 01:25:44;;;;;;;17.05;11.95;;;614.90;2432.00;;;;;;5054604;28;20020;-85
2021/07/09 01:28:10;;;;;;;14.25;12.25;;;615.10;2432.00;;;;;;5054536;28;20025;-86
2021/07/09 01:30:37;;;;;;;19.40;11.40;;;615.00;2432.00;;;;;;5054577;28;20025;-86
2021/07/09 01:33:04;;;;;;;17.30;12.68;;;614.90;2432.00;;;;;;5054481;28;20120;-84
2021/07/09 01:35:30;;;;;;;22.35;13.88;;;614.80;2432.00;;;;;;5054576;28;20472;-84
2021/07/09 01:38:07;;;;;;;20.20;15.27;;;614.90;2432.00;;;;;;5054312;28;20028;-86
2021/07/09 01:40:34;;;;;;;18.02;14.80;;;614.80;2432.00;;;;;;5054291;28;20068;-84
2021/07/09 01:43:00;;;;;;;19.10;13.95;;;614.80;2432.00;;;;;;5054248;28;20028;-83
2021/07/09 01:45:26;;;;;;;16.27;14.57;;;589.50;2432.00;;;;;;5053265;28;20087;-86
2021/07/09 01:47:56;;;;;;;16.33;13.68;;;614.90;2432.00;;;;;;5054259;28;20358;-83
2021/07/09 01:50:24;;;;;;;14.63;13.10;;;614.60;2432.00;;;;;;5054176;28;20021;-86
2021/07/09 01:52:50;;;;;;;18.15;14.27;;;614.60;2432.00;;;;;;5054502;28;20060;-83
2021/07/09 01:55:17;;;;;;;15.40;11.57;;;614.70;2432.00;;;;;;5054027;28;20032;-84
2021/07/09 01:57:44;;;;;;;18.75;12.25;;;614.80;2432.00;;;;;;5054202;28;20361;-84
2021/07/09 02:00:13;;;;;;;18.15;12.50;;;614.80;2432.00;;;;;;5053653;28;20021;-84
2021/07/09 02:02:40;;;;;;;17.88;14.13;;;614.80;2432.00;;;;;;5053825;28;20024;-86
2021/07/09 02:05:12;;;;;;;15.00;12.77;;;614.80;2432.00;;;;;;5053976;28;20124;-86
2021/07/09 02:07:40;;;;;;;20.38;12.80;;;614.80;2432.00;;;;;;5053648;28;20024;-85
2021/07/09 02:10:08;;;;;;;18.23;13.32;;;614.80;2432.00;;;;;;5053517;28;20017;-85
2021/07/09 02:12:35;;;;;;;17.35;13.13;;;614.70;2432.00;;;;;;5053549;28;20020;-84
2021/07/09 02:15:11;;;;;;;15.38;13.40;;;614.50;2432.00;;;;;;5054130;28;20028;-84
2021/07/09 02:17:37;;;;;;;26.02;16.13;;;589.70;2432.00;;;;;;5058802;28;20052;-85
2021/07/09 02:20:07;;;;;;;18.70;15.02;;;589.70;2432.00;;;;;;5058304;28;20025;-85
2021/07/09 02:22:32;;;;;;;17.88;15.80;;;589.70;2432.00;;;;;;5053729;28;20021;-85
2021/07/09 02:24:59;;;;;;;22.65;16.02;;;589.70;2432.00;;;;;;5053470;28;20033;-85
2021/07/09 02:27:24;;;;;;;19.13;13.73;;;614.40;2432.00;;;;;;5053304;28;20021;-85
2021/07/09 02:29:53;;;;;;;18.77;13.85;;;589.60;2432.00;;;;;;5053596;28;20017;-84
2021/07/09 02:32:19;;;;;;;16.10;14.00;;;589.70;2432.00;;;;;;5053228;28;20021;-84
2021/07/09 02:34:45;;;;;;;19.95;13.80;;;589.40;2432.00;;;;;;5053437;28;20025;-83
2021/07/09 02:37:11;;;;;;;19.65;13.50;;;589.50;2432.00;;;;;;5053410;28;20025;-83
2021/07/09 02:39:40;;;;;;;16.80;13.60;;;589.50;2432.00;;;;;;5053074;28;20128;-84
2021/07/09 02:42:07;;;;;;;18.15;13.23;;;589.30;2432.00;;;;;;5053408;28;20024;-83
2021/07/09 02:44:34;;;;;;;16.00;12.52;;;589.20;2432.00;;;;;;5053165;28;20029;-84
2021/07/09 02:47:00;;;;;;;15.68;12.90;;;589.00;2432.00;;;;;;5053144;28;20097;-83
2021/07/09 02:49:26;;;;;;;15.32;13.35;;;589.10;2432.00;;;;;;5053250;28;20441;-85
2021/07/09 02:51:53;;;;;;;14.23;12.75;;;589.10;2432.00;;;;;;5053152;28;20021;-84
2021/07/09 02:54:19;;;;;;;19.15;13.25;;;588.90;2432.00;;;;;;5052931;28;20032;-85
2021/07/09 02:56:45;;;;;;;15.07;12.70;;;564.10;2432.00;;;;;;5052728;28;20028;-85
2021/07/09 02:59:12;;;;;;;16.80;14.00;;;588.80;2432.00;;;;;;5053102;28;20025;-85
2021/07/09 03:01:41;;;;;;;17.10;12.48;;;564.10;2432.00;;;;;;5053008;28;20025;-85
2021/07/09 03:04:11;;;;;;;14.43;12.40;;;588.80;2432.00;;;;;;5053036;28;20037;-84
2021/07/09 03:06:38;;;;;;;21.52;13.35;;;589.00;2432.00;;;;;;5053171;28;20027;-85
2021/07/09 03:09:05;;;;;;;19.95;13.43;;;589.10;2432.00;;;;;;5052985;28;20041;-84
2021/07/09 03:11:33;;;;;;;20.80;12.55;;;589.20;2432.00;;;;;;5053117;28;20129;-84
2021/07/09 03:14:00;;;;;;;17.77;12.45;;;589.10;2432.00;;;;;;5052935;28;20491;-85
2021/07/09 03:16:26;;;;;;;16.35;13.50;;;589.00;2432.00;;;;;;5052942;28;20025;-84
2021/07/09 03:18:52;;;;;;;15.95;13.77;;;589.20;2432.00;;;;;;5052970;28;20502;-84
2021/07/09 03:21:18;;;;;;;21.67;14.02;;;589.00;2432.00;;;;;;5052809;28;20032;-85
2021/07/09 03:23:44;;;;;;;16.27;12.20;;;589.00;2432.00;;;;;;5052713;28;20025;-83
2021/07/09 03:26:10;;;;;;;15.05;13.02;;;588.80;2432.00;;;;;;5052652;28;20357;-86
2021/07/09 03:28:35;;;;;;;16.75;13.50;;;588.80;2432.00;;;;;;5052754;28;20060;-83
2021/07/09 03:31:01;;;;;;;19.55;13.57;;;588.80;2432.00;;;;;;5052953;28;20025;-86
2021/07/09 03:33:27;;;;;;;15.65;12.63;;;564.10;2432.00;;;;;;5053033;28;20479;-85
2021/07/09 03:35:53;;;;;;;17.20;13.77;;;564.10;2432.00;;;;;;5052805;28;20028;-85
2021/07/09 03:38:20;;;;;;;19.60;14.75;;;588.80;2432.00;;;;;;5052978;28;20049;-88
2021/07/09 03:40:46;;;;;;;17.50;14.25;;;564.10;2432.00;;;;;;5052843;28;20052;-85
2021/07/09 03:43:13;;;;;;;15.90;13.55;;;563.90;2432.00;;;;;;5053084;28;20021;-85
2021/07/09 03:45:38;;;;;;;17.88;14.15;;;564.00;2432.00;;;;;;5052908;28;20025;-85
2021/07/09 03:48:06;;;;;;;22.17;15.43;;;564.10;2432.00;;;;;;5053046;28;20429;-87
2021/07/09 03:50:32;;;;;;;16.20;13.82;;;563.80;2432.00;;;;;;5052843;28;20115;-86
2021/07/09 03:52:59;;;;;;;15.10;12.75;;;563.70;2432.00;;;;;;5052941;28;20021;-86
2021/07/09 03:55:24;;;;;;;19.98;13.80;;;589.70;2432.00;;;;;;5052924;28;20032;-86
2021/07/09 03:57:50;;;;;;;18.23;13.35;;;564.10;2432.00;;;;;;5052656;28;20017;-86
2021/07/09 04:00:17;;;;;;;17.73;13.63;;;588.80;2432.00;;;;;;5052809;28;20075;-85
2021/07/09 04:02:43;;;;;;;17.05;13.27;;;589.00;2432.00;;;;;;5052967;28;20017;-87
2021/07/09 04:05:10;;;;;;;18.60;12.63;;;588.90;2432.00;;;;;;5052853;28;20075;-88
2021/07/09 04:07:37;;;;;;;18.05;13.95;;;588.90;2432.00;;;;;;5053771;28;20020;-88
2021/07/09 04:10:04;;;;;;;17.23;13.80;;;588.80;2432.00;;;;;;5056497;28;20016;-86
2021/07/09 04:12:30;;;;;;;16.30;13.23;;;588.80;2432.00;;;;;;5056221;28;20028;-86
2021/07/09 04:14:55;;;;;;;16.10;12.07;;;588.80;2432.00;;;;;;5056319;28;20083;-86
2021/07/09 04:17:21;;;;;;;17.02;13.95;;;588.90;2432.00;;;;;;5056173;28;20078;-86
2021/07/09 04:19:49;;;;;;;22.70;14.02;;;588.90;2432.00;;;;;;5056559;28;20025;-86
2021/07/09 04:22:16;;;;;;;19.73;13.35;;;588.80;2432.00;;;;;;5056152;28;20035;-86
2021/07/09 04:24:41;;;;;;;16.60;13.50;;;588.80;2432.00;;;;;;5056107;28;20037;-86
2021/07/09 04:27:08;;;;;;;17.13;13.55;;;564.00;2432.00;;;;;;5056104;28;20021;-86
2021/07/09 04:29:34;;;;;;;21.13;13.32;;;588.90;2432.00;;;;;;5056141;28;20071;-88
2021/07/09 04:32:00;;;;;;;19.05;13.77;;;564.10;2432.00;;;;;;5056025;28;20021;-88
2021/07/09 04:34:25;;;;;;;17.58;14.07;;;564.10;2432.00;;;;;;5056331;28;20024;-87
2021/07/09 04:36:51;;;;;;;19.27;15.63;;;564.10;2432.00;;;;;;5057859;28;20035;-86
2021/07/09 04:39:17;;;;;;;17.73;13.82;;;564.10;2432.00;;;;;;5057190;28;20024;-87
2021/07/09 04:41:43;;;;;;;14.80;12.80;;;564.10;2432.00;;;;;;5056070;28;20418;-87
2021/07/09 04:44:09;;;;;;;18.73;12.40;;;588.80;2432.00;;;;;;5055606;28;20078;-85
2021/07/09 04:46:35;;;;;;;18.65;13.40;;;588.90;2432.00;;;;;;5055855;28;20017;-88
2021/07/09 04:49:01;;;;;;;16.42;14.55;;;588.90;2432.00;;;;;;5055871;28;20021;-86
2021/07/09 04:51:27;;;;;;;16.10;12.70;;;589.00;2432.00;;;;;;5055837;28;20075;-87
2021/07/09 04:53:52;;;;;;;16.88;13.32;;;589.20;2432.00;;;;;;5069634;28;20025;-85
2021/07/09 04:56:18;;;;;;;17.30;13.15;;;589.20;2432.00;;;;;;5069672;28;20045;-86
2021/07/09 04:58:44;;;;;;;20.13;13.88;;;588.80;2432.00;;;;;;5067185;28;20025;-86
2021/07/09 05:01:11;;;;;;;17.98;14.10;;;589.30;2432.00;;;;;;5055469;28;20013;-85
2021/07/09 05:03:36;;;;;;;20.73;13.55;;;589.20;2432.00;;;;;;5055556;28;20033;-88
2021/07/09 05:06:02;;;;;;;16.67;12.88;;;589.30;2432.00;;;;;;5055353;28;20021;-86
2021/07/09 05:08:28;;;;;;;17.63;13.02;;;589.40;2432.00;;;;;;5055350;28;20021;-87
2021/07/09 05:10:54;;;;;;;15.57;12.23;;;589.50;2432.00;;;;;;5055287;28;20463;-86
2021/07/09 05:13:20;;;;;;;20.90;12.68;;;589.40;2432.00;;;;;;5055247;28;20468;-88
2021/07/09 05:15:46;;;;;;;18.48;12.70;;;589.60;2432.00;;;;;;5055127;28;20088;-87
2021/07/09 05:18:11;;;;;;;15.38;11.80;;;589.50;2432.00;;;;;;5055309;28;20113;-87
2021/07/09 05:20:37;;;;;;;18.13;13.40;;;589.60;2432.00;;;;;;5054817;28;20521;-87
2021/07/09 05:23:03;;;;;;;18.83;13.93;;;589.70;2432.00;;;;;;5055010;28;20017;-87
2021/07/09 05:25:29;;;;;;;19.40;12.70;;;589.70;2432.00;;;;;;5054809;28;20033;-86
2021/07/09 05:27:55;;;;;;;18.30;13.25;;;589.70;2432.00;;;;;;5054904;28;20071;-88
2021/07/09 05:30:21;;;;;;;19.92;13.85;;;589.70;2432.00;;;;;;5055393;28;20084;-86
2021/07/09 05:32:47;;;;;;;19.60;15.05;;;589.70;2432.00;;;;;;5055276;28;20020;-88
2021/07/09 05:35:13;;;;;;;24.60;14.35;;;614.40;2432.00;;;;;;5054586;28;20052;-85
2021/07/09 05:37:39;;;;;;;26.67;13.77;;;614.40;2432.00;;;;;;5054754;28;20084;-85
2021/07/09 05:40:05;;;;;;;22.23;14.32;;;614.60;2432.00;;;;;;5054324;28;20077;-88
2021/07/09 05:42:31;;;;;;;17.05;13.85;;;614.60;2432.00;;;;;;5054389;28;20020;-86
2021/07/09 05:44:57;;;;;;;19.95;13.57;;;614.70;2432.00;;;;;;5054486;28;20040;-88
2021/07/09 05:47:24;;;;;;;19.63;15.05;;;614.80;2432.00;;;;;;5054408;28;20024;-88
2021/07/09 05:49:50;;;;;;;22.02;14.07;;;614.80;2432.00;;;;;;5054492;28;20024;-87
2021/07/09 05:52:16;;;;;;;25.55;15.02;;;615.00;2432.00;;;;;;5054621;28;20522;-89
2021/07/09 05:54:42;;;;;;;19.52;13.38;;;615.00;2432.00;;;;;;5054588;28;20031;-86
2021/07/09 05:57:08;;;;;;;17.02;13.57;;;615.10;2432.00;;;;;;5054490;28;20021;-86
2021/07/09 05:59:35;;;;;;;15.77;13.18;;;615.20;2432.00;;;;;;5054289;28;20071;-88
2021/07/09 06:02:01;;;;;;;15.13;12.70;;;615.20;2432.00;;;;;;5056561;28;20063;-86
2021/07/09 06:04:27;;;;;;;16.88;11.82;;;615.30;2432.00;;;;;;5055839;28;20372;-87
2021/07/09 06:06:53;;;;;;;16.35;13.23;;;640.10;2432.00;;;;;;5053950;28;20116;-86
2021/07/09 06:09:19;;;;;;;24.50;12.43;;;640.10;2432.00;;;;;;5054088;28;20063;-87
2021/07/09 06:11:45;;;;;;;17.08;12.05;;;640.30;2432.00;;;;;;5054622;28;20449;-87
2021/07/09 06:14:11;;;;;;;21.45;11.82;;;640.40;2432.00;;;;;;5054044;28;20020;-87
2021/07/09 06:16:37;;;;;;;18.33;11.95;;;640.40;2432.00;;;;;;5053992;28;20020;-87
2021/07/09 06:19:03;;;;;;;24.08;11.57;;;640.60;2432.00;;;;;;5054063;28;20032;-89
2021/07/09 06:21:28;;;;;;;18.30;12.00;;;640.80;2432.00;;;;;;5055055;28;20032;-87
2021/07/09 06:23:54;;;;;;;19.73;11.55;;;665.60;2432.00;;;;;;5053846;28;20342;-85
2021/07/09 06:26:21;;;;;;;14.77;10.52;;;665.80;2432.00;;;;;;5053905;28;20028;-89
2021/07/09 06:28:48;;;;;;;12.60;9.38;;;666.00;2432.00;;;;;;5053881;28;20360;-86
2021/07/09 06:31:14;;;;;;;10.68;9.10;;;666.20;2432.00;;;;;;5054282;28;20031;-86
2021/07/09 06:33:40;;;;;;;13.40;9.32;;;666.30;2432.00;;;;;;5053722;28;20021;-88
2021/07/09 06:36:05;;;;;;;17.20;10.23;;;666.50;2432.00;;;;;;5053701;28;20021;-88
2021/07/09 06:38:31;;;;;;;15.25;9.35;;;691.40;2432.00;;;;;;5053690;28;20029;-85
2021/07/09 06:40:57;;;;;;;14.43;8.75;;;691.60;2432.00;;;;;;5053421;28;20095;-87
2021/07/09 06:43:23;;;;;;;12.95;7.97;;;691.70;2432.00;;;;;;5053673;28;20024;-85
2021/07/09 06:45:49;;;;;;;11.15;7.60;;;691.90;2432.00;;;;;;5053748;28;20021;-89
2021/07/09 06:48:14;;;;;;;11.05;8.90;;;692.10;2432.00;;;;;;5053760;28;20491;-85
2021/07/09 06:50:41;;;;;;;14.18;8.45;;;692.10;2432.00;;;;;;5053723;28;20024;-86
2021/07/09 06:53:07;;;;;;;9.35;7.63;;;716.90;2432.00;;;;;;5053476;28;20031;-88
2021/07/09 06:55:33;;;;;;;11.52;7.22;;;717.10;2432.00;;;;;;5053589;28;20107;-86
2021/07/09 06:57:59;;;;;;;13.93;6.57;;;717.20;2432.00;;;;;;5053506;28;20021;-88
2021/07/09 07:00:26;;;;;;;11.75;6.72;;;717.50;2432.00;;;;;;5053410;28;20025;-86
2021/07/09 07:02:52;;;;;;;9.63;6.03;;;717.70;2432.00;;;;;;5053380;28;20036;-86
2021/07/09 07:05:19;;;;;;;6.18;5.57;;;717.70;2432.00;;;;;;5053276;28;20025;-87
2021/07/09 07:07:45;;;;;;;11.07;5.38;;;742.50;2432.00;;;;;;5053774;28;20021;-86
2021/07/09 07:10:12;;;;;;;11.35;5.10;;;742.60;2432.00;;;;;;5053504;28;20027;-87
2021/07/09 07:12:38;;;;;;;6.40;4.88;;;742.70;2432.00;;;;;;5053182;28;20416;-89
2021/07/09 07:15:07;;;;;;;8.23;4.53;;;742.70;2406.40;;;;;;5053375;28;20107;-87
2021/07/09 07:17:33;;;;;;;7.10;4.40;;;743.00;2406.40;;;;;;5053314;28;20047;-87
2021/07/09 07:19:59;;;;;;;7.32;4.30;;;742.70;2406.40;;;;;;5053192;28;20129;-88
2021/07/09 07:22:25;;;;;;;6.55;4.43;;;742.90;2380.80;;;;;;5053620;28;20027;-88
2021/07/09 07:24:52;;;;;;;7.20;5.82;;;743.10;2355.20;;;;;;5053769;28;20116;-88
2021/07/09 07:27:24;;;;;;;8.68;4.75;;;743.30;2355.20;;;;;;5053455;28;20024;-87
2021/07/09 07:29:51;;;;;;;8.07;5.10;;;743.30;2355.20;;;;;;5053556;28;20028;-88
2021/07/09 07:32:17;;;;;;;9.77;5.78;;;768.00;2355.20;;;;;;5053475;28;20066;-87
2021/07/09 07:34:42;;;;;;;7.60;5.90;;;768.10;2329.60;;;;;;5052797;28;20025;-88
2021/07/09 07:37:09;;;;;;;12.27;5.72;;;768.20;2304.00;;;;;;5052871;28;20021;-84
2021/07/09 07:39:35;;;;;;;9.98;4.78;;;768.30;2304.00;;;;;;5052617;28;20037;-85
2021/07/09 07:42:02;;;;;;;9.32;5.55;;;768.40;2278.40;;;;;;5052886;28;20082;-86
2021/07/09 07:44:28;;;;;;;13.73;6.03;;;768.40;2329.60;;;;;;5056470;28;20021;-87
2021/07/09 07:46:58;;;;;;;11.70;5.70;;;768.60;2278.40;;;;;;5056803;28;20024;-86
2021/07/09 07:49:24;;;;;;;10.00;6.15;;;768.80;2252.80;;;;;;5056694;28;20028;-86
2021/07/09 07:51:51;;;;;;;11.13;6.45;;;768.90;2252.80;;;;;;5064412;28;20027;-90
2021/07/09 07:54:18;;;;;;;8.23;6.05;;;768.90;2227.20;;;;;;5076937;28;20024;-88
2021/07/09 07:56:45;;;;;;;12.57;6.65;;;793.60;2227.20;;;;;;5076719;28;20025;-86
2021/07/09 07:59:11;;;;;;;8.32;5.60;;;793.70;2227.20;;;;;;5076579;28;20021;-88
2021/07/09 08:01:37;;;;;;;9.27;5.72;;;793.90;2227.20;;;;;;5076809;28;20487;-88
2021/07/09 08:04:05;;;;;;;10.18;7.90;;;794.00;2252.80;;;;;;5076705;28;20107;-88
2021/07/09 08:06:31;;;;;;;6.63;5.10;;;794.20;2227.20;;;;;;5076494;28;20372;-90
2021/07/09 08:08:58;;;;;;;27.73;8.63;;;794.20;2201.60;;;;;;5080003;28;20016;-88
2021/07/09 08:11:24;;;;;;;44.47;8.10;;;794.50;2176.00;;;;;;5082416;28;20027;-88
2021/07/09 08:13:50;;;;;;;23.67;6.35;;;794.40;2176.00;;;;;;5078944;28;20062;-88
2021/07/09 08:16:17;;;;;;;19.40;5.32;;;794.30;2150.40;;;;;;5076657;28;20020;-87
2021/07/09 08:18:43;;;;;;;22.42;7.10;;;794.30;2099.20;;;;;;5076293;28;20013;-88
2021/07/09 08:21:09;;;;;;;23.20;8.23;;;794.50;2099.20;;;;;;5076031;28;20024;-88
2021/07/09 08:23:36;;;;;;;13.85;6.32;;;819.30;2099.20;;;;;;5075908;28;20020;-88
2021/07/09 08:26:02;;;;;;;23.15;6.28;;;819.50;2073.60;;;;;;5076332;28;20128;-88
2021/07/09 08:28:28;;;;;;;10.10;8.52;;;819.60;2048.00;;;;;;5076138;28;20023;-90
2021/07/09 08:30:55;;;;;;;12.05;6.75;;;819.40;2048.00;;;;;;5076027;28;20021;-89
2021/07/09 08:33:21;;;;;;;11.95;5.97;;;819.60;2022.40;;;;;;5076030;28;20029;-92
2021/07/09 08:35:48;;;;;;;13.07;6.85;;;819.80;1996.80;;;;;;5076170;28;20024;-91
2021/07/09 08:38:14;;;;;;;11.43;5.18;;;819.80;1996.80;;;;;;5075984;28;20088;-87
2021/07/09 08:40:40;;;;;;;8.45;5.03;;;819.90;1996.80;;;;;;5075330;28;20044;-92
2021/07/09 08:43:07;;;;;;;10.05;5.25;;;;;;;;;;5077243;28;20025;-92
2021/07/09 08:45:33;;;;;;;5.38;4.82;;;844.90;1945.60;;;;;;5077379;28;20025;-88
2021/07/09 08:48:00;;;;;;;10.00;6.10;;;845.00;1945.60;;;;;;5077712;28;20070;-89
2021/07/09 08:50:26;;;;;;;7.68;4.65;;;845.10;1971.20;;;;;;5077942;28;20023;-86
2021/07/09 08:52:57;;;;;;;12.15;5.30;;;845.00;1920.00;;;;;;5077088;28;20099;-89
2021/07/09 08:55:23;;;;;;;14.75;5.82;;;819.30;1894.40;;;;;;5076373;28;20036;-89
2021/07/09 08:58:13;;;;;;;9.68;4.30;;;;;;;;;;5075993;28;20368;-91
2021/07/09 09:04:11;;;;;;;7.88;4.55;;;870.40;1817.60;;;;;;5050841;28;20025;-93
2021/07/09 09:06:37;;;;;;;10.70;4.40;;;870.50;1792.00;;;;;;5037753;28;20492;-88
2021/07/09 09:09:14;;;;;;;7.03;3.30;;;870.50;1792.00;;;;;;5068236;28;20076;-89
2021/07/09 09:12:08;;;;;;;10.98;5.65;;;870.50;1740.80;;;;;;5075268;28;20021;-86
2021/07/09 09:14:45;;;;;;;9.30;6.10;;;870.50;1740.80;;;;;;5074891;28;20025;-83
2021/07/09 09:17:30;;;;;;;11.43;6.15;;;870.50;1740.80;;;;;;5074953;28;20099;-84
2021/07/09 09:20:13;;;;;;;12.63;5.00;;;870.70;1792.00;;;;;;5074840;28;20021;-84
2021/07/09 09:22:48;;;;;;;10.05;6.75;;;870.80;1766.40;;;;;;5067082;28;20023;-84
2021/07/09 09:25:18;;;;;;;11.70;4.90;;;870.90;1766.40;;;;;;5052689;28;20403;-86
2021/07/09 09:27:55;;;;;;;14.93;5.50;;;870.60;1715.20;;;;;;5064141;28;20017;-83
2021/07/09 09:30:21;;;;;;;13.43;4.93;;;870.70;1740.80;;;;;;5055076;28;20028;-90
2021/07/09 09:32:51;;;;;;;7.55;4.38;;;870.90;1740.80;;;;;;5056398;28;20025;-88
2021/07/09 09:35:42;;;;;;;15.65;4.78;;;;;;;;;;5055588;28;20024;-88
2021/07/09 09:38:13;;;;;;;6.93;4.38;;;871.30;1715.20;;;;;;5048078;28;20036;-87
2021/07/09 09:40:40;;;;;;;;;;;896.10;1664.00;;;;;;5055750;28;20043;-86
2021/07/09 09:43:18;;;;;;;7.97;4.78;;;896.30;1664.00;;;;;;5055557;28;19908;-85
2021/07/09 09:45:44;;;;;;;10.50;4.93;;;896.40;1664.00;;;;;;5056923;28;20051;-87
2021/07/09 09:48:14;;;;;;;9.38;4.13;;;896.50;1664.00;;;;;;5066230;28;20461;-87
2021/07/09 09:50:47;;;;;;;11.73;4.35;;;896.70;1612.80;;;;;;5068855;28;20116;-85
2021/07/09 09:53:14;;;;;;;27.27;6.30;;;896.70;1536.00;;;;;;5065191;28;20025;-88
2021/07/09 09:55:41;;;;;;;7.20;4.35;;;896.90;1510.40;;;;;;5054374;28;20091;-86
2021/07/09 09:58:24;;;;;;;9.55;4.47;;;896.90;1536.00;;;;;;5062102;28;20536;-86
2021/07/09 10:00:53;;;;;;;14.43;8.25;;;921.60;1587.20;;;;;;5054045;28;20025;-85
2021/07/09 10:03:20;;;;;;;8.75;5.65;;;921.70;1561.60;;;;;;5055056;28;20039;-87
2021/07/09 10:05:49;;;;;;;13.98;7.13;;;921.80;1561.60;;;;;;5053411;28;20086;-86
2021/07/09 10:08:22;;;;;;;10.88;5.75;;;922.00;1587.20;;;;;;5054028;28;20017;-86
2021/07/09 10:10:48;;;;;;;10.07;6.82;;;922.00;1536.00;;;;;;5053588;28;20025;-82
2021/07/09 10:13:16;;;;;;;7.60;4.65;;;922.20;1510.40;;;;;;5054347;28;20032;-86
2021/07/09 10:15:44;;;;;;;9.82;4.63;;;922.20;1459.20;;;;;;5053919;28;20135;-86
2021/07/09 10:18:14;;;;;;;8.50;5.00;;;922.30;1459.20;;;;;;5053501;28;20020;-87
2021/07/09 10:20:46;;;;;;;7.33;4.50;;;922.40;1459.20;;;;;;5055089;28;20350;-86
2021/07/09 10:23:19;;;;;;;9.10;4.70;;;922.50;1433.60;;;;;;5055229;28;20293;-86
2021/07/09 10:25:47;;;;;;;8.93;4.68;;;947.20;1408.00;;;;;;5053348;28;20384;-84
2021/07/09 10:28:19;;;;;;;6.97;4.13;;;922.10;1433.60;;;;;;5053783;28;20020;-87
2021/07/09 10:30:45;;;;;;;10.27;7.53;;;947.20;1433.60;;;;;;5054311;28;20162;-86
2021/07/09 10:33:35;;;;;;;8.20;4.03;;;947.30;1433.60;;;;;;5054035;28;20021;-86
2021/07/09 10:36:29;;;;;;;6.40;3.45;;;947.40;1408.00;;;;;;5053517;28;20484;-88
2021/07/09 10:39:01;;;;;;;7.10;4.10;;;947.60;1382.40;;;;;;5053854;28;20039;-88
2021/07/09 10:42:19;;;;;;;9.85;4.65;;;947.90;1382.40;;;;;;5053037;28;20588;-87
2021/07/09 10:44:58;;;;;;;6.72;3.50;;;947.90;1356.80;;;;;;5043211;28;20112;-89
2021/07/09 10:51:00;;;;;;;8.65;4.45;;;972.90;1356.80;;;;;;5053398;28;20025;-89
2021/07/09 10:53:28;;;;;;;11.75;4.00;;;948.10;1305.60;;;;;;5053815;28;20024;-87
2021/07/09 10:55:59;;;;;;;11.18;4.15;;;972.90;1331.20;;;;;;5053724;28;20453;-89
2021/07/09 10:58:40;;;;;;;6.43;3.97;;;973.10;1331.20;;;;;;5054346;28;20013;-92
2021/07/09 11:02:11;;;;;;;;;;;;;;;;;;;;;
2021/07/09 11:04:56;;;;;;;;;;;973.20;1305.60;;;;;;5058376;28;20096;-92
2021/07/09 11:08:00;;;;;;;9.57;4.80;;;973.20;1280.00;;;;;;5063418;28;20383;-89
2021/07/09 11:17:36;;;;;;;;;;;;;;;;;;;;;
2021/07/09 11:20:14;;;;;;;8.02;4.13;;;973.70;1254.40;;;;;;5059154;28;20017;-91
2021/07/09 11:23:09;;;;;;;10.70;4.15;;;998.50;1280.00;;;;;;5058250;28;20449;-91
2021/07/09 11:44:34;;;;;;;6.95;4.25;;;973.70;1228.80;;;;;;5847427;22;20246;-89
2021/07/09 11:47:08;;;;;;;9.40;4.53;;;998.50;1254.40;;;;;;4997601;28;20034;-89
2021/07/09 11:49:37;;;;;;;6.80;3.10;;;973.70;1203.20;;;;;;4997580;28;20025;-89
2021/07/09 11:52:07;;;;;;;6.75;3.10;;;973.20;1228.80;;;;;;4997546;28;20072;-89
2021/07/09 11:54:39;;;;;;;7.32;3.30;;;973.50;1228.80;;;;;;4997514;28;20045;-86
2021/07/09 11:57:08;;;;;;;5.75;4.80;;;973.20;1228.80;;;;;;4997295;28;20023;-88
2021/07/09 11:59:35;;;;;;;4.97;3.50;;;973.70;1228.80;;;;;;4997349;28;20015;-86
2021/07/09 12:02:16;;;;;;;6.65;3.67;;;973.70;1228.80;;;;;;4997354;28;20029;-86
2021/07/09 12:04:59;;;;;;;9.75;3.88;;;998.40;1228.80;;;;;;4997330;28;20540;-89
2021/07/09 12:07:27;;;;;;;6.40;3.88;;;;;;;;;;4997254;28;20030;-90
2021/07/09 12:10:14;;;;;;;8.35;3.72;;;998.90;1203.20;;;;;;4997080;28;20018;-91
2021/07/09 12:23:44;;;;;;;5.78;3.45;;;999.10;1203.20;;;;;;4938624;29;20026;-89
2021/07/09 12:26:10;;;;;;;6.80;4.22;;;999.10;1203.20;;;;;;4923114;29;20059;-89
2021/07/09 12:28:36;;;;;;;8.20;3.67;;;999.30;1177.60;;;;;;4940777;28;20634;-90
2021/07/09 12:31:04;;;;;;;5.95;3.47;;;1024.20;1177.60;;;;;;4996932;28;20026;-90
2021/07/09 12:33:36;;;;;;;5.68;3.72;;;1024.40;1152.00;;;;;;5021086;28;20528;-89
2021/07/09 12:36:10;;;;;;;6.45;3.40;;;1024.30;1152.00;;;;;;5025297;28;20105;-86
2021/07/09 12:38:43;;;;;;;6.55;3.10;;;1024.30;1152.00;;;;;;5016304;28;20030;-88
2021/07/09 12:41:14;;;;;;;5.55;3.28;;;1024.40;1126.40;;;;;;5016096;28;20034;-84
2021/07/09 12:43:48;;;;;;;5.75;3.30;;;1024.10;1152.00;;;;;;5015462;28;20029;-88
2021/07/09 12:46:18;;;;;;;5.10;3.50;;;1024.10;1152.00;;;;;;5015841;28;20049;-87
2021/07/09 12:50:04;;;;;;;;;;;;;;;;;;;;;
2021/07/09 13:02:32;;;;;;;5.22;3.30;;;1024.20;1152.00;;;;;;5016581;28;20032;-90
2021/07/09 13:04:58;;;;;;;8.02;4.00;;;1024.50;1126.40;;;;;;5016225;28;20033;-88
2021/07/09 13:07:28;;;;;;;6.65;4.03;;;1024.40;1126.40;;;;;;5016462;28;20017;-90
2021/07/09 13:09:54;;;;;;;5.93;3.45;;;1024.40;1126.40;;;;;;5015935;28;20024;-89
2021/07/09 13:12:25;;;;;;;5.97;3.90;;;1024.40;1100.80;;;;;;5015777;28;20022;-88
2021/07/09 13:15:05;;;;;;;6.95;4.70;;;1024.60;1126.40;;;;;;5016082;28;20026;-88